createdAt,value
2022-12-11T00:00:28.116Z,1.85
2022-12-11T00:02:31.222Z,1.89
2022-12-11T00:04:34.775Z,1.94
2022-12-11T00:06:38.534Z,1.99
2022-12-11T00:08:43.684Z,2.05
2022-12-11T00:10:49.542Z,2.12
2022-12-11T00:12:52.801Z,2.06
2022-12-11T00:14:55.712Z,2.11
2022-12-11T00:16:59.764Z,2.08
2022-12-11T00:19:03.145Z,2.04
2022-12-11T00:21:08.090Z,2.07
2022-12-11T00:23:11.745Z,1.71
2022-12-11T00:25:16.017Z,1.67
2022-12-11T00:27:19.120Z,1.68
2022-12-11T00:29:23.337Z,1.74
2022-12-11T00:31:26.630Z,1.69
2022-12-11T00:33:29.701Z,1.70
2022-12-11T00:35:32.610Z,1.51
2022-12-11T00:37:35.581Z,1.71
2022-12-11T00:39:39.745Z,1.81
2022-12-11T00:41:43.975Z,1.90
2022-12-11T00:43:47.151Z,1.95
2022-12-11T00:45:50.343Z,1.98
2022-12-11T00:47:53.449Z,1.99
2022-12-11T00:49:56.454Z,1.89
2022-12-11T00:51:59.383Z,1.92
2022-12-11T00:54:02.614Z,1.77
2022-12-11T00:56:11.919Z,1.84
2022-12-11T00:58:16.334Z,1.76
2022-12-11T01:00:19.866Z,1.82
2022-12-11T01:02:22.907Z,1.83
2022-12-11T01:04:25.836Z,1.83
2022-12-11T01:06:29.748Z,1.80
2022-12-11T01:08:38.119Z,1.71
2022-12-11T01:10:40.609Z,1.78
2022-12-11T01:12:43.540Z,1.66
2022-12-11T01:14:47.787Z,1.69
2022-12-11T01:16:50.726Z,1.58
2022-12-11T01:18:53.655Z,1.21
2022-12-11T01:20:56.943Z,1.28
2022-12-11T01:23:01.725Z,1.30
2022-12-11T01:25:05.181Z,1.47
2022-12-11T01:27:08.598Z,1.57
2022-12-11T01:29:12.141Z,1.43
2022-12-11T01:31:17.599Z,1.48
2022-12-11T01:33:20.544Z,1.47
2022-12-11T01:35:23.563Z,1.36
2022-12-11T01:37:26.493Z,1.36
2022-12-11T01:39:29.557Z,1.44
2022-12-11T01:41:32.437Z,1.47
2022-12-11T01:43:35.609Z,1.33
2022-12-11T01:45:41.175Z,1.35
2022-12-11T01:47:46.347Z,1.34
2022-12-11T01:49:49.279Z,1.45
2022-12-11T01:51:54.708Z,1.52
2022-12-11T01:54:00.133Z,1.49
2022-12-11T01:56:04.295Z,1.50
2022-12-11T01:58:07.931Z,1.50
2022-12-11T02:00:12.279Z,1.56
2022-12-11T02:02:22.747Z,1.29
2022-12-11T02:04:27.432Z,1.39
2022-12-11T02:06:36.667Z,1.33
2022-12-11T02:08:39.550Z,1.48
2022-12-11T02:10:51.162Z,1.48
2022-12-11T02:12:59.026Z,1.39
2022-12-11T02:15:08.178Z,1.25
2022-12-11T02:17:13.972Z,1.42
2022-12-11T02:19:24.057Z,1.42
2022-12-11T02:21:31.806Z,1.47
2022-12-11T02:23:45.638Z,1.57
2022-12-11T02:25:55.584Z,1.41
2022-12-11T02:28:11.161Z,1.43
2022-12-11T02:30:15.561Z,1.12
2022-12-11T02:32:22.472Z,1.42
2022-12-11T02:34:31.071Z,1.42
2022-12-11T02:36:36.984Z,1.57
2022-12-11T02:38:43.417Z,1.61
2022-12-11T02:40:49.107Z,1.68
2022-12-11T02:42:52.583Z,1.68
2022-12-11T02:44:57.981Z,1.75
2022-12-11T02:47:01.065Z,1.67
2022-12-11T02:49:05.203Z,1.73
2022-12-11T02:51:09.025Z,1.73
2022-12-11T02:53:12.899Z,1.62
2022-12-11T02:55:16.718Z,1.43
2022-12-11T02:57:25.516Z,1.49
2022-12-11T02:59:32.485Z,1.52
2022-12-11T03:01:36.889Z,1.43
2022-12-11T03:03:39.989Z,1.57
2022-12-11T03:05:43.902Z,1.63
2022-12-11T03:07:46.904Z,1.57
2022-12-11T03:09:50.046Z,1.70
2022-12-11T03:11:53.714Z,1.66
2022-12-11T03:13:56.811Z,1.44
2022-12-11T03:16:07.657Z,1.48
2022-12-11T03:18:18.017Z,1.38
2022-12-11T03:20:27.323Z,1.53
2022-12-11T03:22:36.771Z,1.46
2022-12-11T03:24:43.534Z,1.45
2022-12-11T03:26:56.350Z,1.40
2022-12-11T03:29:01.437Z,1.52
2022-12-11T03:31:06.740Z,1.48
2022-12-11T03:33:15.208Z,1.53
2022-12-11T03:35:22.916Z,1.49
2022-12-11T03:37:27.180Z,1.51
2022-12-11T03:39:33.229Z,1.41
2022-12-11T03:41:37.602Z,1.43
2022-12-11T03:43:41.784Z,1.60
2022-12-11T03:45:45.416Z,1.64
2022-12-11T03:47:49.732Z,1.57
2022-12-11T03:49:55.794Z,1.59
2022-12-11T03:51:59.468Z,1.55
2022-12-11T03:54:03.032Z,1.54
2022-12-11T03:56:07.824Z,1.53
2022-12-11T03:58:10.774Z,1.65
2022-12-11T04:00:16.337Z,1.61
2022-12-11T04:02:19.212Z,1.67
2022-12-11T04:04:22.411Z,1.42
2022-12-11T04:06:27.094Z,1.41
2022-12-11T04:08:30.424Z,1.54
2022-12-11T04:10:33.345Z,1.51
2022-12-11T04:12:36.515Z,1.55
2022-12-11T04:14:57.149Z,1.49
2022-12-11T04:17:01.470Z,1.36
2022-12-11T04:19:22.527Z,1.45
2022-12-11T04:21:44.682Z,1.55
2022-12-11T04:24:05.427Z,1.53
2022-12-11T04:26:10.451Z,1.47
2022-12-11T04:28:13.281Z,1.41
2022-12-11T04:30:19.131Z,1.44
2022-12-11T04:32:22.013Z,1.55
2022-12-11T04:34:25.169Z,1.44
2022-12-11T04:36:29.493Z,1.38
2022-12-11T04:38:32.340Z,1.58
2022-12-11T04:40:35.459Z,1.59
2022-12-11T04:42:38.415Z,1.45
2022-12-11T04:44:41.522Z,1.58
2022-12-11T04:46:44.635Z,1.69
2022-12-11T04:48:52.416Z,1.68
2022-12-11T04:50:58.438Z,1.62
2022-12-11T04:53:02.714Z,1.45
2022-12-11T04:55:05.877Z,1.57
2022-12-11T04:57:08.783Z,1.48
2022-12-11T04:59:11.765Z,1.64
2022-12-11T05:01:18.561Z,1.49
2022-12-11T05:03:21.935Z,1.61
2022-12-11T05:05:25.155Z,1.70
2022-12-11T05:07:28.357Z,1.58
2022-12-11T05:09:32.721Z,1.62
2022-12-11T05:11:36.490Z,1.69
2022-12-11T05:13:39.922Z,1.75
2022-12-11T05:15:43.577Z,1.82
2022-12-11T05:17:46.493Z,1.75
2022-12-11T05:19:50.038Z,1.78
2022-12-11T05:21:53.831Z,1.49
2022-12-11T05:23:56.741Z,1.64
2022-12-11T05:26:02.836Z,1.59
2022-12-11T05:28:05.786Z,1.61
2022-12-11T05:30:10.501Z,1.65
2022-12-11T05:32:13.710Z,1.60
2022-12-11T05:34:16.777Z,1.72
2022-12-11T05:36:21.232Z,1.78
2022-12-11T05:38:24.522Z,1.86
2022-12-11T05:40:27.622Z,1.88
2022-12-11T05:42:31.808Z,1.91
2022-12-11T05:44:34.678Z,1.93
2022-12-11T05:46:37.786Z,1.98
2022-12-11T05:48:42.852Z,1.99
2022-12-11T05:50:45.938Z,2.02
2022-12-11T05:52:49.182Z,1.98
2022-12-11T05:54:52.086Z,2.00
2022-12-11T05:56:54.937Z,1.99
2022-12-11T05:59:00.759Z,1.87
2022-12-11T06:01:08.953Z,1.93
2022-12-11T06:03:12.108Z,1.95
2022-12-11T06:05:15.373Z,1.95
2022-12-11T06:07:18.248Z,1.89
2022-12-11T06:09:21.090Z,1.99
2022-12-11T06:11:24.862Z,2.01
2022-12-11T06:13:27.821Z,2.03
2022-12-11T06:15:32.248Z,1.69
2022-12-11T06:17:35.888Z,1.80
2022-12-11T06:19:38.948Z,1.75
2022-12-11T06:21:42.118Z,1.89
2022-12-11T06:23:45.924Z,1.95
2022-12-11T06:25:48.819Z,2.00
2022-12-11T06:27:52.320Z,1.99
2022-12-11T06:29:55.915Z,2.00
2022-12-11T06:32:00.404Z,2.03
2022-12-11T06:34:03.352Z,1.89
2022-12-11T06:36:08.922Z,1.94
2022-12-11T06:38:11.793Z,1.97
2022-12-11T06:40:14.674Z,1.97
2022-12-11T06:42:17.747Z,1.85
2022-12-11T06:44:20.609Z,1.98
2022-12-11T06:46:23.639Z,2.00
2022-12-11T06:48:28.058Z,2.03
2022-12-11T06:50:30.922Z,2.07
2022-12-11T06:52:33.787Z,1.98
2022-12-11T06:54:36.867Z,1.91
2022-12-11T06:56:39.945Z,1.82
2022-12-11T06:58:44.165Z,1.82
2022-12-11T07:00:47.106Z,1.89
2022-12-11T07:02:51.851Z,1.70
2022-12-11T07:04:56.008Z,1.75
2022-12-11T07:06:59.079Z,1.72
2022-12-11T07:09:05.256Z,1.70
2022-12-11T07:11:10.635Z,1.84
2022-12-11T07:13:13.471Z,1.90
2022-12-11T07:15:16.531Z,1.85
2022-12-11T07:17:19.478Z,1.91
2022-12-11T07:19:22.370Z,1.89
2022-12-11T07:21:26.876Z,1.87
2022-12-11T07:23:30.387Z,1.87
2022-12-11T07:25:33.251Z,1.86
2022-12-11T07:27:36.213Z,1.78
2022-12-11T07:29:39.123Z,1.56
2022-12-11T07:31:42.033Z,1.61
2022-12-11T07:33:45.572Z,1.71
2022-12-11T07:35:48.510Z,1.80
2022-12-11T07:37:53.029Z,1.74
2022-12-11T07:39:56.125Z,1.72
2022-12-11T07:41:59.139Z,1.66
2022-12-11T07:44:02.442Z,1.70
2022-12-11T07:46:06.335Z,1.78
2022-12-11T07:48:09.348Z,1.84
2022-12-11T07:50:12.243Z,1.75
2022-12-11T07:52:15.396Z,1.72
2022-12-11T07:54:21.061Z,1.82
2022-12-11T07:56:24.403Z,1.68
2022-12-11T07:58:27.284Z,1.73
2022-12-11T08:00:30.355Z,1.69
2022-12-11T08:02:37.204Z,1.82
2022-12-11T08:04:40.608Z,1.91
2022-12-11T08:06:44.081Z,1.88
2022-12-11T08:08:47.573Z,1.76
2022-12-11T08:10:52.108Z,1.77
2022-12-11T08:12:55.149Z,1.86
2022-12-11T08:14:57.971Z,1.93
2022-12-11T08:17:02.682Z,1.97
2022-12-11T08:19:05.653Z,2.01
2022-12-11T08:21:09.267Z,2.05
2022-12-11T08:23:12.608Z,1.99
2022-12-11T08:25:15.876Z,2.05
2022-12-11T08:27:20.395Z,2.06
2022-12-11T08:29:23.980Z,2.04
2022-12-11T08:31:26.949Z,2.09
2022-12-11T08:33:29.766Z,2.13
2022-12-11T08:35:32.688Z,1.97
2022-12-11T08:37:38.202Z,2.01
2022-12-11T08:39:46.933Z,1.81
2022-12-11T08:41:49.814Z,1.98
2022-12-11T08:44:02.064Z,2.04
2022-12-11T08:46:09.164Z,2.07
2022-12-11T08:48:12.429Z,2.10
2022-12-11T08:50:15.397Z,1.89
2022-12-11T08:52:18.227Z,1.98
2022-12-11T08:54:21.277Z,1.90
2022-12-11T08:56:26.479Z,1.83
2022-12-11T08:58:29.643Z,2.03
2022-12-11T09:00:33.949Z,1.97
2022-12-11T09:02:37.008Z,1.88
2022-12-11T09:04:40.516Z,1.86
2022-12-11T09:06:43.665Z,1.93
2022-12-11T09:08:52.255Z,2.02
2022-12-11T09:10:58.498Z,1.97
2022-12-11T09:13:01.379Z,2.07
2022-12-11T09:15:04.480Z,2.09
2022-12-11T09:17:09.003Z,2.11
2022-12-11T09:19:14.839Z,1.91
2022-12-11T09:21:19.767Z,1.98
2022-12-11T09:23:22.595Z,2.02
2022-12-11T09:25:25.716Z,2.08
2022-12-11T09:27:29.291Z,1.95
2022-12-11T09:29:32.201Z,2.04
2022-12-11T09:31:36.958Z,1.92
2022-12-11T09:33:41.768Z,2.04
2022-12-11T09:35:44.750Z,1.92
2022-12-11T09:37:47.930Z,1.93
2022-12-11T09:39:50.888Z,1.76
2022-12-11T09:41:57.075Z,1.80
2022-12-11T09:44:04.798Z,1.88
2022-12-11T09:46:12.306Z,1.85
2022-12-11T09:48:19.156Z,1.94
2022-12-11T09:50:25.291Z,1.95
2022-12-11T09:52:34.031Z,1.81
2022-12-11T09:54:37.060Z,1.89
2022-12-11T09:56:44.437Z,2.02
2022-12-11T09:58:58.884Z,1.90
2022-12-11T10:01:05.113Z,2.03
2022-12-11T10:03:32.676Z,2.09
2022-12-11T10:05:39.891Z,2.10
2022-12-11T10:07:47.503Z,2.05
2022-12-11T10:23:45.479Z,1.80
2022-12-11T10:25:52.613Z,1.88
2022-12-11T10:27:55.696Z,1.91
2022-12-11T10:30:03.284Z,2.00
2022-12-11T10:32:08.940Z,2.08
2022-12-11T10:34:15.379Z,2.08
2022-12-11T10:36:21.338Z,2.06
2022-12-11T10:38:27.483Z,2.10
2022-12-11T10:40:32.233Z,2.10
2022-12-11T10:42:35.145Z,2.09
2022-12-11T10:44:38.254Z,2.03
2022-12-11T10:46:41.268Z,2.09
2022-12-11T10:48:48.183Z,2.10
2022-12-11T10:51:02.721Z,2.15
2022-12-11T10:53:06.838Z,2.14
2022-12-11T10:55:20.909Z,2.15
2022-12-11T10:57:30.179Z,2.18
2022-12-11T10:59:37.220Z,2.20
2022-12-11T11:01:40.335Z,2.20
2022-12-11T11:03:54.591Z,2.27
2022-12-11T11:06:04.718Z,2.30
2022-12-11T11:08:14.714Z,2.31
2022-12-11T11:10:18.948Z,2.24
2022-12-11T11:12:24.658Z,2.23
2022-12-11T11:14:28.905Z,2.19
2022-12-11T11:16:32.012Z,2.28
2022-12-11T11:18:35.681Z,2.25
2022-12-11T11:20:45.057Z,2.21
2022-12-11T11:22:50.812Z,2.26
2022-12-11T11:24:55.955Z,2.30
2022-12-11T11:27:14.540Z,2.32
2022-12-11T11:29:25.632Z,2.23
2022-12-11T11:31:34.695Z,2.30
2022-12-11T11:33:39.123Z,2.07
2022-12-11T11:35:53.107Z,2.21
2022-12-11T11:38:01.187Z,2.26
2022-12-11T11:40:09.371Z,2.21
2022-12-11T11:42:16.996Z,2.33
2022-12-11T11:44:23.366Z,2.12
2022-12-11T11:46:29.080Z,2.14
2022-12-11T11:48:39.617Z,2.27
2022-12-11T11:50:46.376Z,2.32
2022-12-11T11:52:54.180Z,2.39
2022-12-11T11:55:06.581Z,2.31
2022-12-11T11:57:15.471Z,2.31
2022-12-11T11:59:21.418Z,2.19
2022-12-11T12:01:24.354Z,2.25
2022-12-11T12:03:27.448Z,2.27
2022-12-11T12:05:39.336Z,2.23
2022-12-11T12:07:48.195Z,2.11
2022-12-11T12:09:56.522Z,2.17
2022-12-11T12:12:13.003Z,2.25
2022-12-11T12:14:51.210Z,2.19
2022-12-11T12:16:53.627Z,2.19
2022-12-11T12:19:04.309Z,2.13
2022-12-11T12:21:17.370Z,2.17
2022-12-11T12:23:45.177Z,2.12
2022-12-11T12:25:53.852Z,2.13
2022-12-11T12:28:02.409Z,2.02
2022-12-11T12:30:09.159Z,1.99
2022-12-11T12:32:17.992Z,2.09
2022-12-11T12:34:28.273Z,2.15
2022-12-11T12:36:40.529Z,2.16
2022-12-11T12:38:54.791Z,2.19
2022-12-11T12:41:01.710Z,2.13
2022-12-11T12:43:10.793Z,2.23
2022-12-11T12:45:22.794Z,2.12
2022-12-11T12:47:28.020Z,2.22
2022-12-11T12:49:39.534Z,2.26
2022-12-11T12:51:44.632Z,2.21
2022-12-11T12:53:50.010Z,2.15
2022-12-11T12:55:53.399Z,2.31
2022-12-11T12:57:57.459Z,2.32
2022-12-11T13:00:00.476Z,2.26
2022-12-11T13:02:04.430Z,2.35
2022-12-11T13:04:16.768Z,2.30
2022-12-11T13:06:34.293Z,2.40
2022-12-11T13:08:42.246Z,2.46
2022-12-11T13:10:46.007Z,2.47
2022-12-11T13:12:49.095Z,2.43
2022-12-11T13:14:57.243Z,2.46
2022-12-11T13:17:09.488Z,2.36
2022-12-11T13:19:21.448Z,2.47
2022-12-11T13:21:28.573Z,2.49
2022-12-11T13:23:32.730Z,2.47
2022-12-11T13:25:50.334Z,2.36
2022-12-11T13:27:53.853Z,2.50
2022-12-11T13:30:06.982Z,2.42
2022-12-11T13:32:23.715Z,2.39
2022-12-11T13:34:29.823Z,2.43
2022-12-11T13:36:37.712Z,2.34
2022-12-11T13:38:47.831Z,2.32
2022-12-11T13:40:55.021Z,2.33
2022-12-11T13:43:00.158Z,2.29
2022-12-11T13:45:03.622Z,2.30
2022-12-11T13:47:08.549Z,2.30
2022-12-11T13:49:21.885Z,2.30
2022-12-11T13:51:26.543Z,2.28
2022-12-11T13:53:29.586Z,2.30
2022-12-11T13:55:34.121Z,2.36
2022-12-11T13:57:46.450Z,2.34
2022-12-11T13:59:50.724Z,2.19
2022-12-11T14:01:56.112Z,2.15
2022-12-11T14:04:00.453Z,2.18
2022-12-11T14:06:04.133Z,2.18
2022-12-11T14:08:10.280Z,2.22
2022-12-11T14:14:38.531Z,2.14
2022-12-11T14:16:42.556Z,2.08
2022-12-11T14:18:50.953Z,2.13
2022-12-11T14:20:57.815Z,2.13
2022-12-11T14:23:06.233Z,2.14
2022-12-11T14:25:21.727Z,2.21
2022-12-11T14:27:26.318Z,2.21
2022-12-11T14:29:32.321Z,2.26
2022-12-11T14:31:37.253Z,2.15
2022-12-11T14:33:44.892Z,2.13
2022-12-11T14:40:02.368Z,2.05
2022-12-11T14:42:09.263Z,2.09
2022-12-11T14:44:16.762Z,2.10
2022-12-11T14:46:24.109Z,1.99
2022-12-11T14:48:29.658Z,2.09
2022-12-11T14:50:36.800Z,2.05
2022-12-11T14:52:41.917Z,2.13
2022-12-11T14:54:46.802Z,2.09
2022-12-11T15:01:26.821Z,2.17
2022-12-11T15:03:34.360Z,2.16
2022-12-11T15:05:41.024Z,2.11
2022-12-11T15:07:45.179Z,2.08
2022-12-11T15:09:49.068Z,2.08
2022-12-11T15:11:52.582Z,2.15
2022-12-11T15:13:57.008Z,2.07
2022-12-11T15:16:00.296Z,2.05
2022-12-11T15:18:08.693Z,2.05
2022-12-11T15:20:22.447Z,2.10
2022-12-11T15:22:30.548Z,2.12
2022-12-11T15:24:38.363Z,2.04
2022-12-11T15:26:46.007Z,2.13
2022-12-11T15:28:49.011Z,2.13
2022-12-11T15:30:57.437Z,2.15
2022-12-11T15:33:22.624Z,2.18
2022-12-11T15:35:27.056Z,2.15
2022-12-11T15:37:31.561Z,2.15
2022-12-11T15:39:34.411Z,2.16
2022-12-11T15:41:37.468Z,2.07
2022-12-11T15:43:40.421Z,2.14
2022-12-11T15:45:44.223Z,2.12
2022-12-11T15:47:48.131Z,2.10
2022-12-11T15:49:55.429Z,2.08
2022-12-11T15:51:59.364Z,2.09
2022-12-11T15:54:02.541Z,2.05
2022-12-11T15:56:05.888Z,2.15
2022-12-11T15:58:13.371Z,2.17
2022-12-11T16:00:18.627Z,2.15
2022-12-11T16:02:21.698Z,2.09
2022-12-11T16:04:24.595Z,2.09
2022-12-11T16:06:29.055Z,2.11
2022-12-11T16:08:32.352Z,2.03
2022-12-11T16:10:35.308Z,2.06
2022-12-11T16:12:38.170Z,2.06
2022-12-11T16:14:41.130Z,2.09
2022-12-11T16:16:43.999Z,2.11
2022-12-11T16:18:46.903Z,2.11
2022-12-11T16:20:51.838Z,2.13
2022-12-11T16:22:57.451Z,2.18
2022-12-11T16:25:00.833Z,2.06
2022-12-11T16:27:04.329Z,2.11
2022-12-11T16:29:07.511Z,2.11
2022-12-11T16:31:11.774Z,2.13
2022-12-11T16:33:15.437Z,2.14
2022-12-11T16:35:18.907Z,2.19
2022-12-11T16:37:21.832Z,2.15
2022-12-11T16:39:26.708Z,2.13
2022-12-11T16:41:29.763Z,2.08
2022-12-11T16:43:33.627Z,2.09
2022-12-11T16:45:36.488Z,2.07
2022-12-11T16:47:39.690Z,2.04
2022-12-11T16:49:43.281Z,2.04
2022-12-11T16:51:46.288Z,2.01
2022-12-11T16:53:49.388Z,2.07
2022-12-11T16:55:54.029Z,2.09
2022-12-11T16:57:56.958Z,2.06
2022-12-11T16:59:59.913Z,2.07
2022-12-11T17:02:02.746Z,2.03
2022-12-11T17:04:06.075Z,2.09
2022-12-11T17:06:10.125Z,2.07
2022-12-11T17:08:13.378Z,2.09
2022-12-11T17:10:16.319Z,2.08
2022-12-11T17:12:25.908Z,2.13
2022-12-11T17:14:28.941Z,2.16
2022-12-11T17:16:33.948Z,2.13
2022-12-11T17:18:36.957Z,2.08
2022-12-11T17:20:41.973Z,2.09
2022-12-11T17:22:46.029Z,2.10
2022-12-11T17:24:49.795Z,2.15
2022-12-11T17:26:52.933Z,2.13
2022-12-11T17:28:57.536Z,2.12
2022-12-11T17:31:00.617Z,2.13
2022-12-11T17:33:04.535Z,2.10
2022-12-11T17:35:08.121Z,2.13
2022-12-11T17:37:11.027Z,2.07
2022-12-11T17:39:14.004Z,2.01
2022-12-11T17:41:20.640Z,1.99
2022-12-11T17:43:24.366Z,1.92
2022-12-11T17:45:28.642Z,1.87
2022-12-11T17:47:31.784Z,1.95
2022-12-11T17:49:34.655Z,1.92
2022-12-11T17:51:37.498Z,1.91
2022-12-11T17:53:40.727Z,1.90
2022-12-11T17:55:44.718Z,1.94
2022-12-11T17:57:47.928Z,1.92
2022-12-11T17:59:50.766Z,1.92
2022-12-11T18:01:55.013Z,1.98
2022-12-11T18:04:00.044Z,1.98
2022-12-11T18:06:05.934Z,1.98
2022-12-11T18:08:08.865Z,2.00
2022-12-11T18:10:12.033Z,2.03
2022-12-11T18:12:14.927Z,2.02
2022-12-11T18:14:17.876Z,2.04
2022-12-11T18:16:24.402Z,2.03
2022-12-11T18:18:28.760Z,2.08
2022-12-11T18:20:32.714Z,2.03
2022-12-11T18:22:35.754Z,2.05
2022-12-11T18:24:38.866Z,2.11
2022-12-11T18:26:42.790Z,2.05
2022-12-11T18:28:46.059Z,2.13
2022-12-11T18:30:49.001Z,2.13
2022-12-11T18:32:52.189Z,2.11
2022-12-11T18:34:56.674Z,2.10
2022-12-11T18:36:59.744Z,2.04
2022-12-11T18:39:03.328Z,2.02
2022-12-11T18:41:07.216Z,1.99
2022-12-11T18:43:10.030Z,2.01
2022-12-11T18:45:13.486Z,2.05
2022-12-11T18:47:17.197Z,2.04
2022-12-11T18:49:20.089Z,2.03
2022-12-11T18:51:24.561Z,2.06
2022-12-11T18:53:27.496Z,2.01
2022-12-11T18:55:30.623Z,2.03
2022-12-11T18:57:33.670Z,2.08
2022-12-11T18:59:36.729Z,2.08
2022-12-11T19:01:39.628Z,2.09
2022-12-11T19:03:42.746Z,2.06
2022-12-11T19:05:45.685Z,2.12
2022-12-11T19:07:50.246Z,2.12
2022-12-11T19:09:53.520Z,2.07
2022-12-11T19:11:56.768Z,2.07
2022-12-11T19:14:00.039Z,2.06
2022-12-11T19:16:03.465Z,2.06
2022-12-11T19:18:06.632Z,2.07
2022-12-11T19:20:47.054Z,2.10
2022-12-11T19:22:34.617Z,2.16
2022-12-11T19:24:40.602Z,2.17
2022-12-11T19:26:43.692Z,2.08
2022-12-11T19:28:46.950Z,2.14
2022-12-11T19:30:50.837Z,2.09
2022-12-11T19:32:53.582Z,2.17
2022-12-11T19:34:56.816Z,2.14
2022-12-11T19:36:59.872Z,2.16
2022-12-11T19:39:06.000Z,2.14
2022-12-11T19:41:15.385Z,2.18
2022-12-11T19:43:19.707Z,2.18
2022-12-11T19:45:22.597Z,2.19
2022-12-11T19:47:25.616Z,2.22
2022-12-11T19:49:28.491Z,2.25
2022-12-11T19:51:34.515Z,2.08
2022-12-11T19:53:38.098Z,1.99
2022-12-11T19:55:42.272Z,2.02
2022-12-11T19:57:46.742Z,2.09
2022-12-11T19:59:55.403Z,2.15
2022-12-11T20:02:00.325Z,2.18
2022-12-11T20:04:04.899Z,2.16
2022-12-11T20:06:10.309Z,2.11
2022-12-11T20:08:44.258Z,2.16
2022-12-11T20:10:36.609Z,2.17
2022-12-11T20:12:39.471Z,2.18
2022-12-11T20:14:43.957Z,2.24
2022-12-11T20:17:10.068Z,2.26
2022-12-11T20:19:10.174Z,2.29
2022-12-11T20:21:14.722Z,2.26
2022-12-11T20:23:17.998Z,2.28
2022-12-11T20:25:22.974Z,2.24
2022-12-11T20:27:28.443Z,2.25
2022-12-11T20:29:31.730Z,2.28
2022-12-11T20:31:36.667Z,2.28
2022-12-11T20:33:39.895Z,2.22
2022-12-11T20:35:43.346Z,2.09
2022-12-11T20:37:46.452Z,2.12
2022-12-11T20:39:49.558Z,2.22
2022-12-11T20:41:52.824Z,2.25
2022-12-11T20:43:55.810Z,2.22
2022-12-11T20:46:00.112Z,2.22
2022-12-11T20:48:04.626Z,2.15
2022-12-11T20:50:08.950Z,2.27
2022-12-11T20:52:12.388Z,2.29
2022-12-11T20:54:15.407Z,2.31
2022-12-11T20:56:20.704Z,2.34
2022-12-11T20:58:23.960Z,2.32
2022-12-11T21:00:27.016Z,2.35
2022-12-11T21:02:30.830Z,2.35
2022-12-11T21:04:35.669Z,2.38
2022-12-11T21:06:40.623Z,2.39
2022-12-11T21:08:43.698Z,2.33
2022-12-11T21:10:47.568Z,2.40
2022-12-11T21:12:50.641Z,2.31
2022-12-11T21:14:53.480Z,2.35
2022-12-11T21:16:56.753Z,2.38
2022-12-11T21:18:59.932Z,2.39
2022-12-11T21:21:04.744Z,2.37
2022-12-11T21:23:07.587Z,2.38
2022-12-11T21:25:11.182Z,2.43
2022-12-11T21:27:14.412Z,2.40
2022-12-11T21:29:18.152Z,2.39
2022-12-11T21:31:21.212Z,2.39
2022-12-11T21:33:24.810Z,2.40
2022-12-11T21:35:27.769Z,2.40
2022-12-11T21:37:32.026Z,2.39
2022-12-11T21:39:39.256Z,2.41
2022-12-11T21:41:42.932Z,2.39
2022-12-11T21:44:40.885Z,2.37
2022-12-11T21:46:12.474Z,2.37
2022-12-11T21:48:15.474Z,2.39
2022-12-11T21:50:18.818Z,2.41
2022-12-11T21:52:21.686Z,2.29
2022-12-11T21:54:26.071Z,2.38
2022-12-11T21:56:30.446Z,2.38
2022-12-11T21:58:33.539Z,2.32
2022-12-11T22:00:38.023Z,2.39
2022-12-11T22:02:41.477Z,2.37
2022-12-11T22:04:47.384Z,2.39
2022-12-11T22:06:50.410Z,2.40
2022-12-11T22:08:53.481Z,2.37
2022-12-11T22:10:58.106Z,2.38
2022-12-11T22:13:01.009Z,2.40
2022-12-11T22:15:04.330Z,2.37
2022-12-11T22:17:07.596Z,2.35
2022-12-11T22:19:10.718Z,2.22
2022-12-11T22:21:13.992Z,2.32
2022-12-11T22:23:16.889Z,2.24
2022-12-11T22:25:19.963Z,2.20
2022-12-11T22:27:24.334Z,2.21
2022-12-11T22:29:27.870Z,2.16
2022-12-11T22:31:30.992Z,2.20
2022-12-11T22:33:34.182Z,2.27
2022-12-11T22:35:37.107Z,2.19
2022-12-11T22:37:39.995Z,2.10
2022-12-11T22:39:43.180Z,2.05
2022-12-11T22:41:46.240Z,2.17
2022-12-11T22:43:50.710Z,2.24
2022-12-11T22:45:53.851Z,2.30
2022-12-11T22:47:57.073Z,2.30
2022-12-11T22:50:08.292Z,2.32
2022-12-11T22:52:11.280Z,2.34
2022-12-11T22:54:14.296Z,2.34
2022-12-11T22:56:17.784Z,2.36
2022-12-11T22:58:22.073Z,2.41
2022-12-11T23:00:26.796Z,2.42
2022-12-11T23:02:29.826Z,2.26
2022-12-11T23:04:32.805Z,2.22
2022-12-11T23:06:35.697Z,2.25
2022-12-11T23:08:40.507Z,2.19
2022-12-11T23:10:43.619Z,2.25
2022-12-11T23:12:46.521Z,2.25
2022-12-11T23:14:49.591Z,2.26
2022-12-11T23:16:53.975Z,2.06
2022-12-11T23:18:58.106Z,2.09
2022-12-11T23:21:01.192Z,2.20
2022-12-11T23:23:04.084Z,2.14
2022-12-11T23:25:07.663Z,2.23
2022-12-11T23:27:11.028Z,2.27
2022-12-11T23:29:13.998Z,2.31
2022-12-11T23:31:17.732Z,2.33
2022-12-11T23:33:22.355Z,2.34
2022-12-11T23:35:25.759Z,2.36
2022-12-11T23:37:28.641Z,2.37
2022-12-11T23:39:31.954Z,2.35
2022-12-11T23:41:35.055Z,2.37
2022-12-11T23:43:38.227Z,2.37
2022-12-11T23:45:41.262Z,2.39
2022-12-11T23:47:44.112Z,2.41
2022-12-11T23:49:48.539Z,2.32
2022-12-11T23:51:51.667Z,2.38
2022-12-11T23:53:54.651Z,2.33
2022-12-11T23:55:57.729Z,2.39
2022-12-11T23:58:00.751Z,2.39
